sensor_id;sensor_type;location;lat;lon;timestamp;temperature;humidity
7654;DHT22;3869;48.406;10.774;2023-06-22T00:00:54;20.60;99.90
7654;DHT22;3869;48.406;10.774;2023-06-22T00:03:24;20.60;99.90
7654;DHT22;3869;48.406;10.774;2023-06-22T00:05:53;20.60;99.90
7654;DHT22;3869;48.406;10.774;2023-06-22T00:08:21;20.60;99.90
7654;DHT22;3869;48.406;10.774;2023-06-22T00:10:50;20.70;99.90
7654;DHT22;3869;48.406;10.774;2023-06-22T00:13:18;20.70;99.90
7654;DHT22;3869;48.406;10.774;2023-06-22T00:15:46;20.70;99.90
7654;DHT22;3869;48.406;10.774;2023-06-22T00:18:15;20.70;99.90
7654;DHT22;3869;48.406;10.774;2023-06-22T00:20:42;20.70;99.90
7654;DHT22;3869;48.406;10.774;2023-06-22T00:23:12;20.70;99.90
7654;DHT22;3869;48.406;10.774;2023-06-22T00:25:43;20.70;99.90
7654;DHT22;3869;48.406;10.774;2023-06-22T00:28:13;20.70;99.90
7654;DHT22;3869;48.406;10.774;2023-06-22T00:30:41;20.70;99.90
7654;DHT22;3869;48.406;10.774;2023-06-22T00:33:09;20.70;99.90
7654;DHT22;3869;48.406;10.774;2023-06-22T00:35:37;20.70;99.90
7654;DHT22;3869;48.406;10.774;2023-06-22T00:38:08;20.70;99.90
7654;DHT22;3869;48.406;10.774;2023-06-22T00:40:36;20.70;99.90
7654;DHT22;3869;48.406;10.774;2023-06-22T00:43:04;20.60;99.90
7654;DHT22;3869;48.406;10.774;2023-06-22T00:45:34;20.70;99.90
7654;DHT22;3869;48.406;10.774;2023-06-22T00:48:03;20.60;99.90
7654;DHT22;3869;48.406;10.774;2023-06-22T00:50:32;20.60;99.90
7654;DHT22;3869;48.406;10.774;2023-06-22T00:53:04;20.60;99.90
7654;DHT22;3869;48.406;10.774;2023-06-22T00:55:37;20.60;99.90
7654;DHT22;3869;48.406;10.774;2023-06-22T00:58:06;20.50;99.90
7654;DHT22;3869;48.406;10.774;2023-06-22T01:00:39;20.50;99.90
7654;DHT22;3869;48.406;10.774;2023-06-22T01:03:08;20.40;99.90
7654;DHT22;3869;48.406;10.774;2023-06-22T01:05:38;20.40;99.90
7654;DHT22;3869;48.406;10.774;2023-06-22T01:08:16;20.40;99.90
7654;DHT22;3869;48.406;10.774;2023-06-22T01:10:50;20.40;99.90
7654;DHT22;3869;48.406;10.774;2023-06-22T01:13:26;20.30;99.90
7654;DHT22;3869;48.406;10.774;2023-06-22T01:16:01;20.40;99.90
7654;DHT22;3869;48.406;10.774;2023-06-22T01:18:32;20.30;99.90
7654;DHT22;3869;48.406;10.774;2023-06-22T01:21:04;20.30;99.90
7654;DHT22;3869;48.406;10.774;2023-06-22T01:23:50;20.20;99.90
7654;DHT22;3869;48.406;10.774;2023-06-22T01:26:41;20.20;99.90
7654;DHT22;3869;48.406;10.774;2023-06-22T01:29:13;20.30;99.90
7654;DHT22;3869;48.406;10.774;2023-06-22T01:31:43;20.30;99.90
7654;DHT22;3869;48.406;10.774;2023-06-22T01:34:12;20.30;99.90
7654;DHT22;3869;48.406;10.774;2023-06-22T01:36:42;20.30;99.90
7654;DHT22;3869;48.406;10.774;2023-06-22T01:39:12;20.30;99.90
7654;DHT22;3869;48.406;10.774;2023-06-22T01:41:41;20.30;99.90
7654;DHT22;3869;48.406;10.774;2023-06-22T01:44:12;20.30;99.90
7654;DHT22;3869;48.406;10.774;2023-06-22T01:46:40;20.30;99.90
7654;DHT22;3869;48.406;10.774;2023-06-22T01:49:09;20.30;99.90
7654;DHT22;3869;48.406;10.774;2023-06-22T01:51:37;20.30;99.90
7654;DHT22;3869;48.406;10.774;2023-06-22T01:54:06;20.30;99.90
7654;DHT22;3869;48.406;10.774;2023-06-22T01:56:34;20.30;99.90
7654;DHT22;3869;48.406;10.774;2023-06-22T01:59:08;20.20;99.90
7654;DHT22;3869;48.406;10.774;2023-06-22T02:01:43;20.20;99.90
7654;DHT22;3869;48.406;10.774;2023-06-22T02:04:17;20.20;99.90
7654;DHT22;3869;48.406;10.774;2023-06-22T02:06:50;20.10;99.90
7654;DHT22;3869;48.406;10.774;2023-06-22T02:09:21;20.10;99.90
7654;DHT22;3869;48.406;10.774;2023-06-22T02:11:51;20.00;99.90
7654;DHT22;3869;48.406;10.774;2023-06-22T02:14:22;20.10;99.90
7654;DHT22;3869;48.406;10.774;2023-06-22T02:16:52;20.10;99.90
7654;DHT22;3869;48.406;10.774;2023-06-22T02:19:23;20.00;99.90
7654;DHT22;3869;48.406;10.774;2023-06-22T02:21:51;20.00;99.90
7654;DHT22;3869;48.406;10.774;2023-06-22T02:24:19;20.00;99.90
7654;DHT22;3869;48.406;10.774;2023-06-22T02:26:50;19.90;99.90
7654;DHT22;3869;48.406;10.774;2023-06-22T02:29:18;19.80;99.90
7654;DHT22;3869;48.406;10.774;2023-06-22T02:31:46;19.80;99.90
7654;DHT22;3869;48.406;10.774;2023-06-22T02:34:15;19.80;99.90
7654;DHT22;3869;48.406;10.774;2023-06-22T02:36:45;19.80;99.90
7654;DHT22;3869;48.406;10.774;2023-06-22T02:39:19;19.80;99.90
7654;DHT22;3869;48.406;10.774;2023-06-22T02:41:49;19.80;99.90
7654;DHT22;3869;48.406;10.774;2023-06-22T02:44:18;19.80;99.90
7654;DHT22;3869;48.406;10.774;2023-06-22T02:46:47;19.80;99.90
7654;DHT22;3869;48.406;10.774;2023-06-22T02:49:16;19.80;99.90
7654;DHT22;3869;48.406;10.774;2023-06-22T02:51:46;19.90;99.90
7654;DHT22;3869;48.406;10.774;2023-06-22T02:54:14;19.90;99.90
7654;DHT22;3869;48.406;10.774;2023-06-22T02:56:43;19.90;99.90
7654;DHT22;3869;48.406;10.774;2023-06-22T02:59:11;19.90;99.90
7654;DHT22;3869;48.406;10.774;2023-06-22T03:01:39;19.90;99.90
7654;DHT22;3869;48.406;10.774;2023-06-22T03:04:08;19.90;99.90
7654;DHT22;3869;48.406;10.774;2023-06-22T03:06:38;19.90;99.90
7654;DHT22;3869;48.406;10.774;2023-06-22T03:09:07;19.90;99.90
7654;DHT22;3869;48.406;10.774;2023-06-22T03:11:35;19.90;99.90
7654;DHT22;3869;48.406;10.774;2023-06-22T03:14:03;19.90;99.90
7654;DHT22;3869;48.406;10.774;2023-06-22T03:16:31;19.80;99.90
7654;DHT22;3869;48.406;10.774;2023-06-22T03:19:00;19.80;99.90
7654;DHT22;3869;48.406;10.774;2023-06-22T03:21:28;19.70;99.90
7654;DHT22;3869;48.406;10.774;2023-06-22T03:23:58;19.70;99.90
7654;DHT22;3869;48.406;10.774;2023-06-22T03:26:26;19.70;99.90
7654;DHT22;3869;48.406;10.774;2023-06-22T03:28:54;19.70;99.90
7654;DHT22;3869;48.406;10.774;2023-06-22T03:31:22;19.70;99.90
7654;DHT22;3869;48.406;10.774;2023-06-22T03:33:50;19.70;99.90
7654;DHT22;3869;48.406;10.774;2023-06-22T03:36:19;19.70;99.90
7654;DHT22;3869;48.406;10.774;2023-06-22T03:38:47;19.80;99.90
7654;DHT22;3869;48.406;10.774;2023-06-22T03:41:17;19.80;99.90
7654;DHT22;3869;48.406;10.774;2023-06-22T03:43:45;19.80;99.90
7654;DHT22;3869;48.406;10.774;2023-06-22T03:46:13;19.90;99.90
7654;DHT22;3869;48.406;10.774;2023-06-22T03:48:41;19.90;99.90
7654;DHT22;3869;48.406;10.774;2023-06-22T03:51:09;19.90;99.90
7654;DHT22;3869;48.406;10.774;2023-06-22T03:53:37;19.90;99.90
7654;DHT22;3869;48.406;10.774;2023-06-22T03:56:05;19.90;99.90
7654;DHT22;3869;48.406;10.774;2023-06-22T03:58:34;19.80;99.90
7654;DHT22;3869;48.406;10.774;2023-06-22T04:01:03;19.80;99.90
7654;DHT22;3869;48.406;10.774;2023-06-22T04:03:33;19.80;99.90
7654;DHT22;3869;48.406;10.774;2023-06-22T04:06:01;19.70;99.90
7654;DHT22;3869;48.406;10.774;2023-06-22T04:08:29;19.80;99.90
7654;DHT22;3869;48.406;10.774;2023-06-22T04:10:57;19.80;99.90
7654;DHT22;3869;48.406;10.774;2023-06-22T04:13:25;19.80;99.90
7654;DHT22;3869;48.406;10.774;2023-06-22T04:15:55;19.70;99.90
7654;DHT22;3869;48.406;10.774;2023-06-22T04:18:23;19.80;99.90
7654;DHT22;3869;48.406;10.774;2023-06-22T04:20:51;19.80;99.90
7654;DHT22;3869;48.406;10.774;2023-06-22T04:23:19;19.80;99.90
7654;DHT22;3869;48.406;10.774;2023-06-22T04:25:47;19.80;99.90
7654;DHT22;3869;48.406;10.774;2023-06-22T04:28:15;19.90;99.90
7654;DHT22;3869;48.406;10.774;2023-06-22T04:30:43;19.80;99.90
7654;DHT22;3869;48.406;10.774;2023-06-22T04:33:15;19.80;99.90
7654;DHT22;3869;48.406;10.774;2023-06-22T04:35:45;19.80;99.90
7654;DHT22;3869;48.406;10.774;2023-06-22T04:38:13;19.80;99.90
7654;DHT22;3869;48.406;10.774;2023-06-22T04:40:41;19.80;99.90
7654;DHT22;3869;48.406;10.774;2023-06-22T04:43:09;19.80;99.90
7654;DHT22;3869;48.406;10.774;2023-06-22T04:45:37;19.80;99.90
7654;DHT22;3869;48.406;10.774;2023-06-22T04:48:05;19.80;99.90
7654;DHT22;3869;48.406;10.774;2023-06-22T04:50:36;19.90;99.90
7654;DHT22;3869;48.406;10.774;2023-06-22T04:53:05;19.90;99.90
7654;DHT22;3869;48.406;10.774;2023-06-22T04:55:34;19.90;99.90
7654;DHT22;3869;48.406;10.774;2023-06-22T04:58:04;19.90;99.90
7654;DHT22;3869;48.406;10.774;2023-06-22T05:00:32;20.00;99.90
7654;DHT22;3869;48.406;10.774;2023-06-22T05:03:03;20.10;99.90
7654;DHT22;3869;48.406;10.774;2023-06-22T05:05:47;20.10;99.90
7654;DHT22;3869;48.406;10.774;2023-06-22T05:08:16;20.10;99.90
7654;DHT22;3869;48.406;10.774;2023-06-22T05:10:44;20.10;99.90
7654;DHT22;3869;48.406;10.774;2023-06-22T05:13:30;20.20;99.90
7654;DHT22;3869;48.406;10.774;2023-06-22T05:15:58;20.20;99.90
7654;DHT22;3869;48.406;10.774;2023-06-22T05:18:29;20.20;99.90
7654;DHT22;3869;48.406;10.774;2023-06-22T05:21:00;20.30;99.90
7654;DHT22;3869;48.406;10.774;2023-06-22T05:23:29;20.30;99.90
7654;DHT22;3869;48.406;10.774;2023-06-22T05:25:57;20.30;99.90
7654;DHT22;3869;48.406;10.774;2023-06-22T05:28:25;20.40;99.90
7654;DHT22;3869;48.406;10.774;2023-06-22T05:30:53;20.40;99.90
7654;DHT22;3869;48.406;10.774;2023-06-22T05:33:22;20.50;99.90
7654;DHT22;3869;48.406;10.774;2023-06-22T05:35:50;20.50;99.90
7654;DHT22;3869;48.406;10.774;2023-06-22T05:38:19;20.50;99.90
7654;DHT22;3869;48.406;10.774;2023-06-22T05:40:47;20.50;99.90
7654;DHT22;3869;48.406;10.774;2023-06-22T05:43:15;20.60;99.90
7654;DHT22;3869;48.406;10.774;2023-06-22T05:45:43;20.70;99.90
7654;DHT22;3869;48.406;10.774;2023-06-22T05:48:11;20.70;99.90
7654;DHT22;3869;48.406;10.774;2023-06-22T05:50:39;20.80;99.90
7654;DHT22;3869;48.406;10.774;2023-06-22T05:53:07;20.80;99.90
7654;DHT22;3869;48.406;10.774;2023-06-22T05:55:37;20.90;99.90
7654;DHT22;3869;48.406;10.774;2023-06-22T05:58:05;20.80;99.90
7654;DHT22;3869;48.406;10.774;2023-06-22T06:00:33;20.90;99.90
7654;DHT22;3869;48.406;10.774;2023-06-22T06:03:02;20.90;99.90
7654;DHT22;3869;48.406;10.774;2023-06-22T06:05:31;20.90;99.90
7654;DHT22;3869;48.406;10.774;2023-06-22T06:07:59;21.00;99.90
7654;DHT22;3869;48.406;10.774;2023-06-22T06:10:27;21.00;99.90
7654;DHT22;3869;48.406;10.774;2023-06-22T06:12:58;21.00;99.90
7654;DHT22;3869;48.406;10.774;2023-06-22T06:15:29;21.10;99.90
7654;DHT22;3869;48.406;10.774;2023-06-22T06:17:57;21.10;99.90
7654;DHT22;3869;48.406;10.774;2023-06-22T06:20:26;21.20;99.90
7654;DHT22;3869;48.406;10.774;2023-06-22T06:22:55;21.20;99.90
7654;DHT22;3869;48.406;10.774;2023-06-22T06:25:24;21.30;99.90
7654;DHT22;3869;48.406;10.774;2023-06-22T06:27:53;21.40;99.90
7654;DHT22;3869;48.406;10.774;2023-06-22T06:30:23;21.50;99.90
7654;DHT22;3869;48.406;10.774;2023-06-22T06:32:51;21.60;99.90
7654;DHT22;3869;48.406;10.774;2023-06-22T06:35:19;21.70;99.90
7654;DHT22;3869;48.406;10.774;2023-06-22T06:37:49;21.70;99.90
7654;DHT22;3869;48.406;10.774;2023-06-22T06:40:18;21.80;99.90
7654;DHT22;3869;48.406;10.774;2023-06-22T06:42:48;21.90;99.90
7654;DHT22;3869;48.406;10.774;2023-06-22T06:45:17;21.90;99.90
7654;DHT22;3869;48.406;10.774;2023-06-22T06:47:47;22.00;99.90
7654;DHT22;3869;48.406;10.774;2023-06-22T06:50:16;22.10;99.90
7654;DHT22;3869;48.406;10.774;2023-06-22T06:52:44;22.10;99.90
7654;DHT22;3869;48.406;10.774;2023-06-22T06:55:13;22.20;99.90
7654;DHT22;3869;48.406;10.774;2023-06-22T06:57:41;22.30;99.90
7654;DHT22;3869;48.406;10.774;2023-06-22T07:00:11;22.30;99.90
7654;DHT22;3869;48.406;10.774;2023-06-22T07:02:42;22.50;99.90
7654;DHT22;3869;48.406;10.774;2023-06-22T07:05:12;22.40;99.90
7654;DHT22;3869;48.406;10.774;2023-06-22T07:07:41;22.40;99.90
7654;DHT22;3869;48.406;10.774;2023-06-22T07:10:10;22.50;99.90
7654;DHT22;3869;48.406;10.774;2023-06-22T07:12:38;22.60;99.90
7654;DHT22;3869;48.406;10.774;2023-06-22T07:15:08;22.70;99.90
7654;DHT22;3869;48.406;10.774;2023-06-22T07:17:36;22.70;99.90
7654;DHT22;3869;48.406;10.774;2023-06-22T07:20:07;22.80;99.90
7654;DHT22;3869;48.406;10.774;2023-06-22T07:22:39;22.90;99.90
7654;DHT22;3869;48.406;10.774;2023-06-22T07:25:08;22.90;99.90
7654;DHT22;3869;48.406;10.774;2023-06-22T07:27:37;23.00;99.90
7654;DHT22;3869;48.406;10.774;2023-06-22T07:30:07;23.10;99.90
7654;DHT22;3869;48.406;10.774;2023-06-22T07:32:35;23.10;99.90
7654;DHT22;3869;48.406;10.774;2023-06-22T07:35:04;23.20;99.90
7654;DHT22;3869;48.406;10.774;2023-06-22T07:37:33;23.30;99.90
7654;DHT22;3869;48.406;10.774;2023-06-22T07:40:04;23.30;99.90
7654;DHT22;3869;48.406;10.774;2023-06-22T07:42:33;23.40;99.90
7654;DHT22;3869;48.406;10.774;2023-06-22T07:45:04;23.50;99.90
7654;DHT22;3869;48.406;10.774;2023-06-22T07:47:35;23.60;99.90
7654;DHT22;3869;48.406;10.774;2023-06-22T07:50:04;23.60;99.90
7654;DHT22;3869;48.406;10.774;2023-06-22T07:52:32;23.70;99.90
7654;DHT22;3869;48.406;10.774;2023-06-22T07:55:00;23.80;99.90
7654;DHT22;3869;48.406;10.774;2023-06-22T07:57:31;23.80;99.90
7654;DHT22;3869;48.406;10.774;2023-06-22T08:00:01;23.90;99.90
7654;DHT22;3869;48.406;10.774;2023-06-22T08:02:35;24.00;99.90
7654;DHT22;3869;48.406;10.774;2023-06-22T08:05:03;24.00;99.90
7654;DHT22;3869;48.406;10.774;2023-06-22T08:07:47;24.10;99.90
7654;DHT22;3869;48.406;10.774;2023-06-22T08:10:16;24.20;99.90
7654;DHT22;3869;48.406;10.774;2023-06-22T08:12:45;24.20;99.90
7654;DHT22;3869;48.406;10.774;2023-06-22T08:15:13;24.30;99.90
7654;DHT22;3869;48.406;10.774;2023-06-22T08:17:41;24.40;99.90
7654;DHT22;3869;48.406;10.774;2023-06-22T08:20:10;24.40;99.90
7654;DHT22;3869;48.406;10.774;2023-06-22T08:22:39;24.50;99.90
7654;DHT22;3869;48.406;10.774;2023-06-22T08:25:08;24.60;99.90
7654;DHT22;3869;48.406;10.774;2023-06-22T08:27:36;24.60;99.90
7654;DHT22;3869;48.406;10.774;2023-06-22T08:30:07;24.70;99.90
7654;DHT22;3869;48.406;10.774;2023-06-22T08:32:35;24.70;99.90
7654;DHT22;3869;48.406;10.774;2023-06-22T08:35:03;24.80;99.90
7654;DHT22;3869;48.406;10.774;2023-06-22T08:37:33;24.90;99.90
7654;DHT22;3869;48.406;10.774;2023-06-22T08:40:04;25.00;99.90
7654;DHT22;3869;48.406;10.774;2023-06-22T08:42:34;25.00;99.90
7654;DHT22;3869;48.406;10.774;2023-06-22T08:45:02;25.10;99.90
7654;DHT22;3869;48.406;10.774;2023-06-22T08:47:32;25.20;99.90
7654;DHT22;3869;48.406;10.774;2023-06-22T08:50:00;25.20;99.90
7654;DHT22;3869;48.406;10.774;2023-06-22T08:52:29;25.30;99.90
7654;DHT22;3869;48.406;10.774;2023-06-22T08:54:57;25.30;99.90
7654;DHT22;3869;48.406;10.774;2023-06-22T08:57:26;25.40;99.90
7654;DHT22;3869;48.406;10.774;2023-06-22T08:59:54;25.40;99.90
7654;DHT22;3869;48.406;10.774;2023-06-22T09:02:25;25.50;99.90
7654;DHT22;3869;48.406;10.774;2023-06-22T09:04:58;25.50;99.90
7654;DHT22;3869;48.406;10.774;2023-06-22T09:07:27;25.60;99.90
7654;DHT22;3869;48.406;10.774;2023-06-22T09:09:56;25.60;99.90
7654;DHT22;3869;48.406;10.774;2023-06-22T09:12:28;25.70;99.90
7654;DHT22;3869;48.406;10.774;2023-06-22T09:14:57;25.80;99.90
7654;DHT22;3869;48.406;10.774;2023-06-22T09:17:26;25.90;99.90
7654;DHT22;3869;48.406;10.774;2023-06-22T09:19:54;26.00;99.90
7654;DHT22;3869;48.406;10.774;2023-06-22T09:22:24;26.00;99.90
7654;DHT22;3869;48.406;10.774;2023-06-22T09:24:55;26.10;99.90
7654;DHT22;3869;48.406;10.774;2023-06-22T09:27:23;26.20;99.90
7654;DHT22;3869;48.406;10.774;2023-06-22T09:29:51;26.30;99.90
7654;DHT22;3869;48.406;10.774;2023-06-22T09:32:19;26.30;99.90
7654;DHT22;3869;48.406;10.774;2023-06-22T09:34:47;26.40;99.90
7654;DHT22;3869;48.406;10.774;2023-06-22T09:37:15;26.50;99.90
7654;DHT22;3869;48.406;10.774;2023-06-22T09:39:45;26.50;99.90
7654;DHT22;3869;48.406;10.774;2023-06-22T09:42:13;26.60;99.90
7654;DHT22;3869;48.406;10.774;2023-06-22T09:44:41;26.70;99.90
7654;DHT22;3869;48.406;10.774;2023-06-22T09:47:09;26.70;99.90
7654;DHT22;3869;48.406;10.774;2023-06-22T09:49:37;26.80;99.90
7654;DHT22;3869;48.406;10.774;2023-06-22T09:52:14;26.80;99.90
7654;DHT22;3869;48.406;10.774;2023-06-22T09:54:42;26.90;99.90
7654;DHT22;3869;48.406;10.774;2023-06-22T09:57:11;27.00;99.90
7654;DHT22;3869;48.406;10.774;2023-06-22T09:59:40;27.10;99.90
7654;DHT22;3869;48.406;10.774;2023-06-22T10:02:09;27.20;99.90
7654;DHT22;3869;48.406;10.774;2023-06-22T10:04:37;27.30;99.90
7654;DHT22;3869;48.406;10.774;2023-06-22T10:07:06;27.50;99.90
7654;DHT22;3869;48.406;10.774;2023-06-22T10:09:34;27.60;99.90
7654;DHT22;3869;48.406;10.774;2023-06-22T10:12:03;27.60;99.90
7654;DHT22;3869;48.406;10.774;2023-06-22T10:14:32;27.70;99.90
7654;DHT22;3869;48.406;10.774;2023-06-22T10:17:00;27.60;99.90
7654;DHT22;3869;48.406;10.774;2023-06-22T10:19:28;27.60;99.90
7654;DHT22;3869;48.406;10.774;2023-06-22T10:21:56;27.60;99.90
7654;DHT22;3869;48.406;10.774;2023-06-22T10:24:24;27.70;99.90
7654;DHT22;3869;48.406;10.774;2023-06-22T10:26:52;27.70;99.90
7654;DHT22;3869;48.406;10.774;2023-06-22T10:29:20;27.70;99.90
7654;DHT22;3869;48.406;10.774;2023-06-22T10:31:50;27.70;99.90
7654;DHT22;3869;48.406;10.774;2023-06-22T10:34:18;27.80;99.90
7654;DHT22;3869;48.406;10.774;2023-06-22T10:36:46;27.80;99.90
7654;DHT22;3869;48.406;10.774;2023-06-22T10:39:15;27.90;99.90
7654;DHT22;3869;48.406;10.774;2023-06-22T10:41:43;27.90;99.90
7654;DHT22;3869;48.406;10.774;2023-06-22T10:44:11;28.00;99.90
7654;DHT22;3869;48.406;10.774;2023-06-22T10:46:40;28.20;99.90
7654;DHT22;3869;48.406;10.774;2023-06-22T10:49:09;28.30;99.90
7654;DHT22;3869;48.406;10.774;2023-06-22T10:51:37;28.40;99.90
7654;DHT22;3869;48.406;10.774;2023-06-22T10:54:05;28.50;99.90
7654;DHT22;3869;48.406;10.774;2023-06-22T10:56:33;28.70;99.90
7654;DHT22;3869;48.406;10.774;2023-06-22T10:59:01;28.90;99.90
7654;DHT22;3869;48.406;10.774;2023-06-22T11:01:29;29.10;99.90
7654;DHT22;3869;48.406;10.774;2023-06-22T11:04:02;29.20;99.90
7654;DHT22;3869;48.406;10.774;2023-06-22T11:06:33;29.20;99.90
7654;DHT22;3869;48.406;10.774;2023-06-22T11:09:01;29.20;99.90
7654;DHT22;3869;48.406;10.774;2023-06-22T11:11:50;29.20;99.90
7654;DHT22;3869;48.406;10.774;2023-06-22T11:14:20;29.30;99.90
7654;DHT22;3869;48.406;10.774;2023-06-22T11:16:49;29.40;99.90
7654;DHT22;3869;48.406;10.774;2023-06-22T11:19:17;29.40;99.90
7654;DHT22;3869;48.406;10.774;2023-06-22T11:21:46;29.40;99.90
7654;DHT22;3869;48.406;10.774;2023-06-22T11:24:14;29.40;99.90
7654;DHT22;3869;48.406;10.774;2023-06-22T11:26:43;29.60;99.90
7654;DHT22;3869;48.406;10.774;2023-06-22T11:29:11;29.70;99.90
7654;DHT22;3869;48.406;10.774;2023-06-22T11:31:58;29.70;99.90
7654;DHT22;3869;48.406;10.774;2023-06-22T11:34:26;29.80;99.90
7654;DHT22;3869;48.406;10.774;2023-06-22T11:36:56;29.80;99.90
7654;DHT22;3869;48.406;10.774;2023-06-22T11:39:24;29.80;99.90
7654;DHT22;3869;48.406;10.774;2023-06-22T11:42:08;29.90;99.90
7654;DHT22;3869;48.406;10.774;2023-06-22T11:44:37;30.00;99.90
7654;DHT22;3869;48.406;10.774;2023-06-22T11:47:05;30.10;99.80
7654;DHT22;3869;48.406;10.774;2023-06-22T11:49:33;30.20;99.40
7654;DHT22;3869;48.406;10.774;2023-06-22T11:52:03;30.30;98.90
7654;DHT22;3869;48.406;10.774;2023-06-22T11:54:31;30.30;98.60
7654;DHT22;3869;48.406;10.774;2023-06-22T11:56:59;30.40;99.50
7654;DHT22;3869;48.406;10.774;2023-06-22T11:59:27;30.50;99.30
7654;DHT22;3869;48.406;10.774;2023-06-22T12:01:55;30.40;98.60
7654;DHT22;3869;48.406;10.774;2023-06-22T12:04:24;30.40;99.40
7654;DHT22;3869;48.406;10.774;2023-06-22T12:06:52;30.40;99.20
7654;DHT22;3869;48.406;10.774;2023-06-22T12:09:22;30.40;99.30
7654;DHT22;3869;48.406;10.774;2023-06-22T12:11:50;30.40;99.20
7654;DHT22;3869;48.406;10.774;2023-06-22T12:14:18;30.40;99.00
7654;DHT22;3869;48.406;10.774;2023-06-22T12:16:46;30.40;99.30
7654;DHT22;3869;48.406;10.774;2023-06-22T12:19:14;30.50;98.60
7654;DHT22;3869;48.406;10.774;2023-06-22T12:21:42;30.50;98.20
7654;DHT22;3869;48.406;10.774;2023-06-22T12:24:12;30.50;98.60
7654;DHT22;3869;48.406;10.774;2023-06-22T12:26:42;30.50;99.00
7654;DHT22;3869;48.406;10.774;2023-06-22T12:29:11;30.70;99.10
7654;DHT22;3869;48.406;10.774;2023-06-22T12:31:39;30.70;98.80
7654;DHT22;3869;48.406;10.774;2023-06-22T12:34:08;30.70;98.20
7654;DHT22;3869;48.406;10.774;2023-06-22T12:36:36;30.60;98.10
7654;DHT22;3869;48.406;10.774;2023-06-22T12:39:04;30.70;98.50
7654;DHT22;3869;48.406;10.774;2023-06-22T12:41:32;30.70;98.40
7654;DHT22;3869;48.406;10.774;2023-06-22T12:44:02;30.80;98.20
7654;DHT22;3869;48.406;10.774;2023-06-22T12:46:30;30.90;98.70
7654;DHT22;3869;48.406;10.774;2023-06-22T12:49:04;30.90;98.60
7654;DHT22;3869;48.406;10.774;2023-06-22T12:51:32;31.00;98.70
7654;DHT22;3869;48.406;10.774;2023-06-22T12:54:00;31.00;97.20
7654;DHT22;3869;48.406;10.774;2023-06-22T12:56:28;31.10;97.00
7654;DHT22;3869;48.406;10.774;2023-06-22T12:58:56;31.10;96.80
7654;DHT22;3869;48.406;10.774;2023-06-22T13:01:26;31.20;96.60
7654;DHT22;3869;48.406;10.774;2023-06-22T13:03:54;31.20;96.50
7654;DHT22;3869;48.406;10.774;2023-06-22T13:06:22;31.30;96.40
7654;DHT22;3869;48.406;10.774;2023-06-22T13:08:50;31.20;95.90
7654;DHT22;3869;48.406;10.774;2023-06-22T13:11:21;31.20;95.80
7654;DHT22;3869;48.406;10.774;2023-06-22T13:13:49;31.20;95.80
7654;DHT22;3869;48.406;10.774;2023-06-22T13:16:17;31.30;96.00
7654;DHT22;3869;48.406;10.774;2023-06-22T13:18:46;31.20;96.30
7654;DHT22;3869;48.406;10.774;2023-06-22T13:21:14;31.30;96.20
7654;DHT22;3869;48.406;10.774;2023-06-22T13:23:42;31.30;96.10
7654;DHT22;3869;48.406;10.774;2023-06-22T13:26:10;31.30;96.10
7654;DHT22;3869;48.406;10.774;2023-06-22T13:28:38;31.30;95.70
7654;DHT22;3869;48.406;10.774;2023-06-22T13:31:06;31.40;95.00
7654;DHT22;3869;48.406;10.774;2023-06-22T13:33:38;31.30;94.50
7654;DHT22;3869;48.406;10.774;2023-06-22T13:36:08;31.40;95.90
7654;DHT22;3869;48.406;10.774;2023-06-22T13:38:36;31.50;95.20
7654;DHT22;3869;48.406;10.774;2023-06-22T13:41:05;31.50;94.50
7654;DHT22;3869;48.406;10.774;2023-06-22T13:43:33;31.40;94.40
7654;DHT22;3869;48.406;10.774;2023-06-22T13:46:01;31.40;95.20
7654;DHT22;3869;48.406;10.774;2023-06-22T13:48:29;31.50;96.10
7654;DHT22;3869;48.406;10.774;2023-06-22T13:50:57;31.50;96.00
7654;DHT22;3869;48.406;10.774;2023-06-22T13:53:27;31.40;96.30
7654;DHT22;3869;48.406;10.774;2023-06-22T13:55:55;31.30;96.80
7654;DHT22;3869;48.406;10.774;2023-06-22T13:58:23;31.30;96.80
7654;DHT22;3869;48.406;10.774;2023-06-22T14:00:51;31.10;96.50
7654;DHT22;3869;48.406;10.774;2023-06-22T14:03:22;31.00;96.10
7654;DHT22;3869;48.406;10.774;2023-06-22T14:05:50;31.00;96.90
7654;DHT22;3869;48.406;10.774;2023-06-22T14:08:20;31.00;96.70
7654;DHT22;3869;48.406;10.774;2023-06-22T14:10:54;30.90;96.00
7654;DHT22;3869;48.406;10.774;2023-06-22T14:13:22;30.90;95.80
7654;DHT22;3869;48.406;10.774;2023-06-22T14:15:50;30.80;95.30
7654;DHT22;3869;48.406;10.774;2023-06-22T14:18:19;30.80;95.90
7654;DHT22;3869;48.406;10.774;2023-06-22T14:20:49;30.80;95.80
7654;DHT22;3869;48.406;10.774;2023-06-22T14:23:17;30.70;95.30
7654;DHT22;3869;48.406;10.774;2023-06-22T14:25:45;30.70;95.00
7654;DHT22;3869;48.406;10.774;2023-06-22T14:28:15;30.70;96.40
7654;DHT22;3869;48.406;10.774;2023-06-22T14:30:44;30.70;96.40
7654;DHT22;3869;48.406;10.774;2023-06-22T14:33:12;30.80;96.20
7654;DHT22;3869;48.406;10.774;2023-06-22T14:35:40;30.70;95.70
7654;DHT22;3869;48.406;10.774;2023-06-22T14:38:08;30.70;95.30
7654;DHT22;3869;48.406;10.774;2023-06-22T14:40:36;30.80;96.00
7654;DHT22;3869;48.406;10.774;2023-06-22T14:43:25;30.80;95.50
7654;DHT22;3869;48.406;10.774;2023-06-22T14:45:53;30.90;95.80
7654;DHT22;3869;48.406;10.774;2023-06-22T14:48:21;30.90;95.60
7654;DHT22;3869;48.406;10.774;2023-06-22T14:50:49;30.90;95.30
7654;DHT22;3869;48.406;10.774;2023-06-22T14:53:17;30.90;94.50
7654;DHT22;3869;48.406;10.774;2023-06-22T14:55:46;30.90;95.30
7654;DHT22;3869;48.406;10.774;2023-06-22T14:58:13;31.10;95.20
7654;DHT22;3869;48.406;10.774;2023-06-22T15:00:43;31.30;95.10
7654;DHT22;3869;48.406;10.774;2023-06-22T15:03:11;31.40;94.70
7654;DHT22;3869;48.406;10.774;2023-06-22T15:05:46;31.40;94.70
7654;DHT22;3869;48.406;10.774;2023-06-22T15:08:14;31.50;94.60
7654;DHT22;3869;48.406;10.774;2023-06-22T15:10:42;31.50;94.80
7654;DHT22;3869;48.406;10.774;2023-06-22T15:13:10;31.50;94.00
7654;DHT22;3869;48.406;10.774;2023-06-22T15:15:39;31.50;95.20
7654;DHT22;3869;48.406;10.774;2023-06-22T15:18:08;31.50;96.10
7654;DHT22;3869;48.406;10.774;2023-06-22T15:20:37;31.60;96.40
7654;DHT22;3869;48.406;10.774;2023-06-22T15:23:06;31.50;96.50
7654;DHT22;3869;48.406;10.774;2023-06-22T15:25:35;31.40;96.70
7654;DHT22;3869;48.406;10.774;2023-06-22T15:28:05;31.30;96.80
7654;DHT22;3869;48.406;10.774;2023-06-22T15:30:33;31.20;97.20
7654;DHT22;3869;48.406;10.774;2023-06-22T15:33:02;31.20;97.70
7654;DHT22;3869;48.406;10.774;2023-06-22T15:35:31;31.30;97.60
7654;DHT22;3869;48.406;10.774;2023-06-22T15:37:59;31.30;97.60
7654;DHT22;3869;48.406;10.774;2023-06-22T15:40:28;31.50;97.80
7654;DHT22;3869;48.406;10.774;2023-06-22T15:42:57;31.50;97.60
7654;DHT22;3869;48.406;10.774;2023-06-22T15:45:25;31.50;97.60
7654;DHT22;3869;48.406;10.774;2023-06-22T15:47:54;31.50;96.90
7654;DHT22;3869;48.406;10.774;2023-06-22T15:50:22;31.50;97.20
7654;DHT22;3869;48.406;10.774;2023-06-22T15:52:51;31.50;97.40
7654;DHT22;3869;48.406;10.774;2023-06-22T15:55:19;31.50;97.40
7654;DHT22;3869;48.406;10.774;2023-06-22T15:57:47;31.50;97.80